Terminal Aerodrome Forecast
Issued by NWS

Home | Current Version | Previous Version | Text Only | Print | Product List | Glossary On
Versions: 1 2 3 4 5 6 7 8 9 10 11 12
800
FTUS43 KIND 252328
TAFHUF
TAF
KHUF 252328Z 2600/2624 15008KT P6SM VCSH OVC070
     FM260400 15008KT 5SM -SHRA OVC050
     FM261000 17007KT 5SM -SHRA OVC015
     FM261200 18007KT P6SM VCSH OVC015
     FM261500 19011G19KT P6SM VCSH OVC030
     FM261800 21012G20KT P6SM OVC025
     FM262100 23012KT P6SM BKN035=

USA.gov is the U.S. government's official web portal to all federal, state and local government web resources and services.